Time;durP1;ratioP1;P1;durP2;ratioP2;P2;SDS_P1;SDS_P2;PMS_P1;PMS_P2;Temp;Humidity;BMP_temperature;BMP_pressure;BME280_temperature;BME280_humidity;BME280_pressure;Samples;Min_cycle;Max_cycle;Signal;HPM_P1;HPM_P2
2021/06/20 15:56:28;;;;;;;77.20;9.35;;;;;;;24.99;78.09;100916.17;1751607;81;21365;-67
2021/06/20 15:59:02;;;;;;;70.95;11.28;;;;;;;24.98;78.19;100922.44;1812972;78;21336;-69
2021/06/20 16:01:35;;;;;;;74.07;10.70;;;;;;;24.97;78.17;100922.78;1812577;78;21360;-70
2021/06/20 16:04:08;;;;;;;77.15;10.23;;;;;;;24.95;78.19;100913.20;1798349;77;21309;-68
2021/06/20 16:06:41;;;;;;;74.70;9.75;;;;;;;24.97;78.54;100909.98;1829335;78;21309;-68
2021/06/20 16:09:14;;;;;;;;;;;;;;;24.98;78.53;100911.64;1833725;77;21218;-71
2021/06/20 16:11:47;;;;;;;86.05;10.35;;;;;;;24.98;78.76;100915.33;1833492;77;20172;-68
2021/06/20 16:14:20;;;;;;;;;;;;;;;24.95;78.87;100914.63;1824783;78;21841;-68
2021/06/20 16:16:53;;;;;;;72.95;9.88;;;;;;;24.97;79.17;100919.94;1797728;78;20521;-69
2021/06/20 16:19:26;;;;;;;;;;;;;;;24.94;79.31;100923.50;1806528;78;21377;-71
2021/06/20 16:21:59;;;;;;;66.53;9.70;;;;;;;24.94;79.56;100927.16;1818048;78;20256;-69
2021/06/20 16:24:33;;;;;;;49.80;9.10;;;;;;;24.91;79.64;100932.13;1828960;78;21301;-71
2021/06/20 16:27:06;;;;;;;65.08;8.33;;;;;;;24.91;80.02;100925.60;1806542;78;21328;-72
2021/06/20 16:29:39;;;;;;;87.40;9.90;;;;;;;24.89;80.30;100927.98;1829984;76;22444;-70
2021/06/20 16:32:12;;;;;;;74.45;9.03;;;;;;;24.85;80.67;100927.00;1756121;80;21174;-68
2021/06/20 16:34:48;;;;;;;64.67;8.68;;;;;;;24.80;80.80;100942.88;1830373;78;21256;-69
2021/06/20 16:37:21;;;;;;;65.57;8.95;;;;;;;24.78;80.97;100936.69;1808888;78;21361;-67
2021/06/20 16:39:54;;;;;;;66.35;9.65;;;;;;;24.75;81.05;100938.22;1743528;81;21826;-69
2021/06/20 16:42:27;;;;;;;;;;;;;;;24.75;81.16;100941.67;1759271;77;21778;-71
2021/06/20 16:45:00;;;;;;;56.40;7.10;;;;;;;24.77;81.19;100945.83;1699807;81;20797;-70
2021/06/20 16:47:32;;;;;;;;;;;;;;;24.76;81.21;100946.17;1627409;87;21250;-74
2021/06/20 16:50:07;;;;;;;77.25;9.38;;;;;;;24.74;81.21;100945.09;1669993;84;20192;-72
2021/06/20 16:52:44;;;;;;;75.92;11.03;;;;;;;24.74;81.33;100940.02;1628713;86;21409;-74
2021/06/20 16:55:36;;;;;;;59.35;9.05;;;;;;;24.75;81.36;100944.52;1650301;85;21276;-73
2021/06/20 16:58:10;;;;;;;72.25;10.03;;;;;;;24.77;81.39;100941.56;1659331;85;21377;-71
2021/06/20 17:00:44;;;;;;;53.02;9.10;;;;;;;24.82;81.23;100942.74;1658231;86;21259;-73
2021/06/20 17:03:18;;;;;;;73.07;9.53;;;;;;;24.87;80.86;100940.30;1724778;82;21398;-73
2021/06/20 17:05:50;;;;;;;68.22;11.60;;;;;;;24.91;80.58;100940.66;1654363;86;21365;-73
2021/06/20 17:08:24;;;;;;;;;;;;;;;24.99;80.37;100939.73;1642044;87;21372;-73
2021/06/20 17:10:58;;;;;;;80.40;9.90;;;;;;;25.06;80.16;100942.82;1649994;85;20277;-73
2021/06/20 17:13:34;;;;;;;51.20;8.03;;;;;;;25.13;79.69;100940.84;1662633;84;21792;-73
2021/06/20 17:16:15;;;;;;;55.88;8.63;;;;;;;25.12;79.11;100942.84;1647676;85;21314;-76
2021/06/20 17:18:50;;;;;;;64.12;9.30;;;;;;;25.07;78.75;100945.09;1618761;86;21259;-73
2021/06/20 17:21:24;;;;;;;64.47;8.45;;;;;;;25.02;78.46;100946.73;1634892;87;21206;-72
2021/06/20 17:23:57;;;;;;;59.58;8.13;;;;;;;24.96;78.46;100945.28;1631591;87;21340;-72
2021/06/20 17:26:30;;;;;;;53.20;7.55;;;;;;;24.93;78.44;100948.23;1640976;84;21370;-74
2021/06/20 17:29:03;;;;;;;51.68;7.97;;;;;;;24.86;78.31;100942.91;1660266;84;21740;-72
2021/06/20 17:31:36;;;;;;;51.42;7.75;;;;;;;24.78;78.46;100950.90;1659121;85;21239;-74
2021/06/20 17:34:09;;;;;;;53.83;8.33;;;;;;;24.73;78.59;100956.22;1652737;85;21232;-71
2021/06/20 17:36:42;;;;;;;58.92;8.00;;;;;;;24.72;78.66;100957.98;1654472;85;21629;-75
2021/06/20 17:39:14;;;;;;;;;;;;;;;24.76;78.61;100961.80;1726600;82;21218;-71
2021/06/20 17:41:47;;;;;;;63.33;8.50;;;;;;;24.78;78.44;100956.59;1720134;83;20626;-74
2021/06/20 17:44:21;;;;;;;49.80;7.90;;;;;;;24.75;78.23;100953.84;1654403;85;21220;-71
2021/06/20 17:46:53;;;;;;;62.05;8.43;;;;;;;24.76;78.20;100951.84;1628028;86;21232;-71
2021/06/20 17:49:27;;;;;;;59.67;10.35;;;;;;;24.76;78.18;100941.91;1669928;84;21360;-73
2021/06/20 17:51:59;;;;;;;65.47;9.68;;;;;;;24.76;78.15;100938.45;1670829;85;21845;-75
2021/06/20 17:54:32;;;;;;;33.28;7.00;;;;;;;24.81;78.07;100947.38;1629859;87;21743;-74
2021/06/20 17:57:08;;;;;;;57.73;9.53;;;;;;;24.84;77.88;100953.77;1677462;84;21216;-76
2021/06/20 17:59:43;;;;;;;43.45;7.17;;;;;;;24.86;77.64;100951.43;1654768;85;21372;-75
2021/06/20 18:02:15;;;;;;;48.23;7.47;;;;;;;24.89;77.57;100953.55;1617759;87;21419;-73
2021/06/20 18:04:50;;;;;;;65.00;10.23;;;;;;;24.89;77.44;100958.66;1631829;87;21389;-75
2021/06/20 18:07:22;;;;;;;49.20;8.05;;;;;;;24.90;77.38;100958.05;1625937;86;21314;-72
2021/06/20 18:09:56;;;;;;;46.77;7.33;;;;;;;24.92;77.19;100961.40;1630527;85;21242;-73
2021/06/20 18:12:28;;;;;;;66.17;8.23;;;;;;;24.91;77.03;100956.29;1624399;87;21281;-72
2021/06/20 18:15:01;;;;;;;57.27;9.20;;;;;;;24.89;76.86;100946.45;1616784;88;21222;-72
2021/06/20 18:17:34;;;;;;;43.87;6.70;;;;;;;24.84;76.87;100943.82;1612426;88;21289;-74
2021/06/20 18:20:08;;;;;;;43.50;7.70;;;;;;;24.81;76.90;100946.77;1674822;84;21253;-74
2021/06/20 18:22:41;;;;;;;36.85;7.20;;;;;;;24.76;76.86;100951.84;1634581;87;21233;-74
2021/06/20 18:25:14;;;;;;;63.63;9.13;;;;;;;24.70;77.04;100942.69;1636850;87;21293;-74
2021/06/20 18:27:49;;;;;;;58.65;9.38;;;;;;;24.68;77.24;100942.83;1702072;83;21199;-73
2021/06/20 18:30:22;;;;;;;44.63;7.42;;;;;;;24.68;77.33;100932.88;1644842;86;21263;-73
2021/06/20 18:32:56;;;;;;;53.15;10.80;;;;;;;24.68;77.35;100944.25;1655639;84;21244;-73
2021/06/20 18:35:31;;;;;;;64.82;11.55;;;;;;;24.67;77.36;100940.56;1675586;85;21265;-73
2021/06/20 18:38:16;;;;;;;62.35;10.23;;;;;;;24.61;77.34;100941.11;1646434;86;21390;-74
2021/06/20 18:40:49;;;;;;;52.48;7.60;;;;;;;24.56;77.54;100945.58;1714573;82;21214;-75
2021/06/20 18:43:22;;;;;;;59.63;8.25;;;;;;;24.51;77.72;100946.59;1665091;85;21714;-72
2021/06/20 18:45:54;;;;;;;;;;;;;;;24.48;77.94;100945.89;1633432;87;21345;-74
2021/06/20 18:48:30;;;;;;;56.73;7.83;;;;;;;24.48;78.01;100950.72;1638390;80;20242;-75
2021/06/20 18:51:04;;;;;;;42.13;7.50;;;;;;;24.44;78.17;100945.52;1713730;82;21366;-74
2021/06/20 18:53:36;;;;;;;61.10;9.05;;;;;;;24.42;78.36;100947.84;1703218;83;21393;-74
2021/06/20 18:56:12;;;;;;;51.00;8.83;;;;;;;24.39;78.56;100945.72;1729646;82;21330;-72
2021/06/20 18:58:49;;;;;;;50.80;9.95;;;;;;;24.39;78.78;100945.72;1727372;82;21300;-72
2021/06/20 19:01:27;;;;;;;57.25;9.85;;;;;;;24.39;78.84;100950.78;1680049;83;21347;-74
2021/06/20 19:04:01;;;;;;;67.87;8.45;;;;;;;24.37;78.94;100948.05;1769371;79;21711;-75
2021/06/20 19:06:34;;;;;;;59.93;8.43;;;;;;;24.32;79.15;100951.13;1788517;79;21844;-73
2021/06/20 19:09:07;;;;;;;53.10;7.87;;;;;;;24.25;79.48;100948.00;1780106;79;21280;-70
2021/06/20 19:11:41;;;;;;;44.85;6.10;;;;;;;24.16;79.93;100949.48;1769341;80;21180;-71
2021/06/20 19:14:13;;;;;;;50.90;8.55;;;;;;;24.10;80.38;100948.59;1733981;80;21320;-70
2021/06/20 19:16:47;;;;;;;40.55;6.42;;;;;;;24.06;80.71;100947.04;1693232;84;21265;-69
2021/06/20 19:19:20;;;;;;;43.33;6.45;;;;;;;24.05;80.99;100950.22;1704273;83;21175;-70
2021/06/20 19:21:53;;;;;;;37.03;6.10;;;;;;;24.07;81.07;100945.86;1719267;82;21432;-69
2021/06/20 19:24:26;;;;;;;37.90;7.10;;;;;;;24.10;81.11;100940.93;1705033;83;21267;-71
2021/06/20 19:26:59;;;;;;;31.12;6.75;;;;;;;24.15;81.05;100945.56;1736207;82;21201;-70
2021/06/20 19:29:33;;;;;;;40.20;5.72;;;;;;;24.18;81.00;100951.38;1730444;82;21738;-69
2021/06/20 19:32:06;;;;;;;55.58;7.45;;;;;;;24.17;81.11;100941.20;1722811;83;21344;-77
2021/06/20 19:34:39;;;;;;;41.90;7.30;;;;;;;24.20;81.08;100949.63;1713175;82;21866;-74
2021/06/20 19:37:14;;;;;;;50.63;7.53;;;;;;;24.20;81.00;100946.18;1706942;82;21190;-72
2021/06/20 19:39:46;;;;;;;36.50;6.75;;;;;;;24.19;81.00;100951.62;1687676;84;21219;-73
2021/06/20 19:42:20;;;;;;;34.90;6.62;;;;;;;24.17;81.10;100953.14;1699342;83;21212;-75
2021/06/20 19:44:54;;;;;;;43.90;6.10;;;;;;;24.16;81.23;100954.32;1694059;84;21374;-75
2021/06/20 19:47:27;;;;;;;46.23;7.28;;;;;;;24.15;81.37;100949.83;1697129;84;21839;-74
2021/06/20 19:50:00;;;;;;;36.55;6.78;;;;;;;24.08;81.55;100949.55;1689628;83;21416;-75
2021/06/20 19:52:32;;;;;;;45.58;7.15;;;;;;;23.96;81.88;100946.61;1690454;83;21240;-75
2021/06/20 19:55:08;;;;;;;40.65;7.33;;;;;;;23.93;82.16;100943.03;1693963;83;22094;-74
2021/06/20 19:57:50;;;;;;;44.38;6.37;;;;;;;23.92;82.29;100941.38;1702326;83;21252;-73
2021/06/20 20:00:27;;;;;;;52.62;6.85;;;;;;;23.93;82.50;100953.80;1685903;84;21409;-78
2021/06/20 20:03:03;;;;;;;45.85;7.15;;;;;;;23.96;82.55;100946.61;1693566;84;21382;-74
2021/06/20 20:05:37;;;;;;;46.58;7.90;;;;;;;23.97;82.41;100944.02;1693324;82;21887;-73
2021/06/20 20:08:10;;;;;;;41.90;6.72;;;;;;;23.99;82.23;100941.08;1699234;82;21347;-75
2021/06/20 20:10:44;;;;;;;30.45;6.47;;;;;;;23.99;82.16;100938.25;1698299;82;22045;-72
2021/06/20 20:13:18;;;;;;;40.17;8.08;;;;;;;23.97;82.12;100946.28;1689478;82;21202;-72
2021/06/20 20:15:52;;;;;;;28.60;6.47;;;;;;;23.93;82.23;100950.13;1696010;84;21199;-70
2021/06/20 20:18:25;;;;;;;34.23;6.37;;;;;;;23.91;82.40;100946.23;1693851;84;21358;-73
2021/06/20 20:20:57;;;;;;;44.35;7.10;;;;;;;23.88;82.52;100942.65;1693793;84;21717;-72
2021/06/20 20:23:30;;;;;;;28.90;6.60;;;;;;;23.88;82.64;100945.48;1693709;84;21888;-72
2021/06/20 20:26:03;;;;;;;33.73;6.58;;;;;;;23.84;82.79;100947.30;1693793;83;21308;-71
2021/06/20 20:28:37;;;;;;;30.37;6.15;;;;;;;23.81;82.93;100942.33;1697195;84;21370;-75
2021/06/20 20:31:12;;;;;;;36.93;6.75;;;;;;;23.77;82.95;100939.92;1698420;84;21252;-70
2021/06/20 20:33:45;;;;;;;41.25;6.95;;;;;;;23.74;83.15;100942.61;1693742;84;21398;-73
2021/06/20 20:36:19;;;;;;;35.98;6.65;;;;;;;23.72;83.35;100942.95;1693758;84;21361;-72
2021/06/20 20:38:52;;;;;;;35.78;8.33;;;;;;;23.69;83.39;100940.81;1698347;84;21327;-71
2021/06/20 20:41:24;;;;;;;44.95;6.62;;;;;;;23.66;83.33;100948.56;1705882;82;21223;-82
2021/06/20 20:43:57;;;;;;;29.77;6.53;;;;;;;23.61;83.44;100945.95;1733123;81;21451;-78
2021/06/20 20:46:30;;;;;;;39.88;6.22;;;;;;;23.60;83.62;100944.27;1699043;82;21718;-74
2021/06/20 20:49:03;;;;;;;34.27;6.30;;;;;;;23.62;83.76;100941.09;1696753;81;21857;-74
2021/06/20 20:51:38;;;;;;;20.72;6.05;;;;;;;23.59;83.68;100945.44;1700631;82;21228;-79
2021/06/20 20:54:11;;;;;;;;;;;;;;;23.55;83.67;100943.63;1707746;82;21610;-81
2021/06/20 20:56:43;;;;;;;35.68;7.97;;;;;;;23.52;83.93;100944.33;1707294;83;20412;-75
2021/06/20 20:59:16;;;;;;;33.67;7.55;;;;;;;23.50;83.93;100938.99;1705096;83;21466;-79
2021/06/20 21:01:51;;;;;;;32.58;6.58;;;;;;;23.43;84.02;100935.02;1703061;82;21327;-75
2021/06/20 21:04:23;;;;;;;35.92;5.83;;;;;;;23.39;84.20;100931.19;1684359;84;21212;-80
2021/06/20 21:06:56;;;;;;;35.17;8.18;;;;;;;23.36;84.24;100933.30;1677109;83;21709;-76
2021/06/20 21:09:30;;;;;;;30.10;7.47;;;;;;;23.31;84.61;100930.64;1700783;83;21265;-77
2021/06/20 21:12:05;;;;;;;30.35;6.95;;;;;;;23.30;84.73;100932.66;1696956;83;21289;-78
2021/06/20 21:14:38;;;;;;;29.15;6.75;;;;;;;23.29;84.77;100932.99;1697444;82;21956;-77
2021/06/20 21:17:11;;;;;;;34.40;8.45;;;;;;;23.24;84.80;100937.42;1687976;84;21202;-78
2021/06/20 21:19:44;;;;;;;29.35;6.97;;;;;;;23.20;84.83;100933.59;1697516;83;21269;-78
2021/06/20 21:22:18;;;;;;;30.62;6.67;;;;;;;23.13;84.98;100926.17;1697184;83;21407;-80
2021/06/20 21:24:52;;;;;;;34.88;6.40;;;;;;;23.12;85.32;100924.52;1692902;83;21440;-79
2021/06/20 21:27:24;;;;;;;;;;;;;;;23.11;85.29;100918.00;1675150;84;21830;-76
2021/06/20 21:29:57;;;;;;;30.72;6.10;;;;;;;23.12;85.40;100919.69;1723705;81;20189;-77
2021/06/20 21:32:29;;;;;;;35.05;6.87;;;;;;;23.10;85.39;100915.53;1753175;80;21386;-80
2021/06/20 21:35:06;;;;;;;31.25;7.55;;;;;;;23.10;85.45;100923.42;1760879;79;21393;-80
2021/06/20 21:37:45;;;;;;;31.10;7.20;;;;;;;23.06;85.28;100932.95;1761377;80;21529;-83
2021/06/20 21:40:19;;;;;;;28.38;6.50;;;;;;;23.01;85.30;100934.54;1763593;80;21344;-81
2021/06/20 21:42:52;;;;;;;33.83;8.18;;;;;;;22.96;85.43;100936.13;1754566;79;21375;-82
2021/06/20 21:45:31;;;;;;;39.05;8.43;;;;;;;22.90;85.60;100928.98;1762971;80;21384;-82
2021/06/20 21:48:01;;;;;;;39.08;9.08;;;;;;;22.90;85.78;100931.23;1762560;80;21174;-81
2021/06/20 21:50:34;;;;;;;50.15;11.60;;;;;;;22.91;85.85;100932.09;1734163;81;21724;-77
2021/06/20 21:53:08;;;;;;;36.03;8.80;;;;;;;22.92;85.75;100945.08;1759579;80;21190;-77
2021/06/20 21:55:43;;;;;;;32.08;9.78;;;;;;;22.89;85.72;100942.90;1745087;80;21340;-74
2021/06/20 21:58:15;;;;;;;41.35;11.08;;;;;;;22.86;85.67;100942.98;1736590;81;21711;-80
2021/06/20 22:00:48;;;;;;;37.17;10.23;;;;;;;22.84;85.74;100943.06;1763474;81;21214;-80
2021/06/20 22:03:21;;;;;;;50.90;11.43;;;;;;;22.84;85.72;100941.66;1742161;81;21336;-77
2021/06/20 22:05:54;;;;;;;41.42;10.60;;;;;;;22.83;85.76;100940.00;1731279;80;21179;-84
2021/06/20 22:08:26;;;;;;;40.80;10.30;;;;;;;22.86;85.75;100940.75;1761376;79;21485;-77
2021/06/20 22:11:00;;;;;;;37.35;9.73;;;;;;;22.84;85.60;100950.15;1752858;79;21269;-77
2021/06/20 22:13:34;;;;;;;47.53;11.90;;;;;;;22.82;85.66;100952.50;1731793;81;21182;-78
2021/06/20 22:16:07;;;;;;;40.65;11.73;;;;;;;22.83;85.57;100954.16;1723266;81;21216;-79
2021/06/20 22:18:41;;;;;;;40.45;11.55;;;;;;;22.81;85.49;100949.42;1706175;82;21257;-79
2021/06/20 22:21:14;;;;;;;32.85;10.75;;;;;;;22.79;85.33;100948.94;1719267;81;21812;-81
2021/06/20 22:23:48;;;;;;;39.45;11.57;;;;;;;22.74;85.31;100947.08;1707185;82;21223;-81
2021/06/20 22:26:22;;;;;;;44.08;13.05;;;;;;;22.66;85.36;100946.52;1696231;83;21377;-76
2021/06/20 22:28:54;;;;;;;59.35;16.10;;;;;;;22.64;85.62;100945.19;1691911;82;21372;-80
2021/06/20 22:31:27;;;;;;;51.80;12.20;;;;;;;22.64;85.64;100942.36;1691906;84;21397;-82
2021/06/20 22:34:00;;;;;;;41.68;12.63;;;;;;;22.62;85.61;100958.26;1688259;84;21461;-79
2021/06/20 22:36:36;;;;;;;46.68;14.23;;;;;;;22.59;85.56;100954.70;1696465;81;21209;-79
2021/06/20 22:39:09;;;;;;;46.68;11.97;;;;;;;22.55;85.74;100954.28;1689737;83;21404;-83
2021/06/20 22:41:43;;;;;;;36.53;11.38;;;;;;;22.55;85.88;100955.70;1699266;82;21198;-78
2021/06/20 22:44:16;;;;;;;50.52;11.65;;;;;;;22.56;85.81;100952.52;1699046;83;21204;-76
2021/06/20 22:46:49;;;;;;;37.88;11.63;;;;;;;22.56;85.81;100952.52;1687464;83;21408;-80
2021/06/20 22:49:21;;;;;;;42.88;10.95;;;;;;;22.54;85.84;100954.86;1682803;84;21399;-81
2021/06/20 22:51:54;;;;;;;36.77;10.80;;;;;;;22.55;85.86;100950.05;1699676;83;21217;-80
2021/06/20 22:54:27;;;;;;;40.95;10.70;;;;;;;22.56;85.72;100952.52;1747553;81;21717;-79
2021/06/20 22:57:00;;;;;;;;;;;;;;;22.57;85.79;100944.86;1702019;82;21246;-76
2021/06/20 22:59:34;;;;;;;51.88;11.60;;;;;;;22.57;85.71;100952.79;1713363;81;20288;-79
2021/06/20 23:02:07;;;;;;;41.23;10.23;;;;;;;22.54;85.56;100954.01;1682955;83;21703;-79
2021/06/20 23:04:40;;;;;;;37.10;9.75;;;;;;;22.49;85.51;100949.95;1708768;83;21236;-75
2021/06/20 23:07:14;;;;;;;41.55;9.53;;;;;;;22.45;85.56;100954.04;1729988;82;21855;-79
2021/06/20 23:09:47;;;;;;;39.80;9.60;;;;;;;22.44;85.73;100955.78;1706633;82;21884;-78
2021/06/20 23:12:21;;;;;;;43.52;10.23;;;;;;;22.42;85.72;100953.24;1730707;82;21305;-76
2021/06/20 23:14:55;;;;;;;38.70;10.58;;;;;;;22.40;85.73;100960.40;1731423;82;21720;-78
2021/06/20 23:17:28;;;;;;;35.05;9.30;;;;;;;22.36;85.76;100952.34;1734971;82;21341;-77
2021/06/20 23:20:01;;;;;;;33.15;8.23;;;;;;;22.35;85.87;100953.48;1724463;81;21442;-78
2021/06/20 23:22:34;;;;;;;40.80;9.45;;;;;;;22.36;85.99;100946.69;1751327;81;21329;-76
2021/06/20 23:25:09;;;;;;;29.85;10.43;;;;;;;22.37;85.97;100946.92;1727064;81;21235;-77
2021/06/20 23:27:42;;;;;;;44.53;10.13;;;;;;;22.35;85.70;100946.41;1730683;81;21429;-76
2021/06/20 23:30:17;;;;;;;41.73;9.28;;;;;;;22.28;85.66;100947.48;1714164;82;21343;-81
2021/06/20 23:32:50;;;;;;;46.23;10.53;;;;;;;22.24;85.88;100950.16;1711116;81;21235;-83
2021/06/20 23:35:23;;;;;;;46.42;10.18;;;;;;;22.21;85.91;100948.57;1750416;81;21262;-80
2021/06/20 23:37:58;;;;;;;45.03;9.60;;;;;;;22.22;86.17;100951.64;1695865;84;21398;-79
2021/06/20 23:40:30;;;;;;;34.92;9.23;;;;;;;22.21;85.93;100952.25;1695980;83;21226;-79
2021/06/20 23:43:03;;;;;;;30.07;7.67;;;;;;;22.17;86.02;100956.05;1714562;82;21836;-79
2021/06/20 23:45:36;;;;;;;34.85;8.55;;;;;;;22.17;86.13;100951.80;1708956;82;21201;-78
2021/06/20 23:48:09;;;;;;;45.38;9.25;;;;;;;22.20;86.14;100956.81;1710779;82;21201;-80
2021/06/20 23:50:42;;;;;;;26.93;8.18;;;;;;;22.19;86.00;100949.49;1706518;83;21208;-78
2021/06/20 23:53:15;;;;;;;40.10;8.53;;;;;;;22.17;85.87;100942.75;1669744;83;21339;-78
2021/06/20 23:55:48;;;;;;;30.90;8.48;;;;;;;22.16;85.90;100938.82;1695987;84;21189;-79
2021/06/20 23:58:20;;;;;;;44.40;8.77;;;;;;;22.14;85.93;100943.98;1685191;84;21249;-72
